createdAt,value
2016-05-23T00:00:35.950Z,1001.55
2016-05-23T00:01:35.937Z,1001.5
2016-05-23T00:02:35.925Z,1001.52
2016-05-23T00:03:35.911Z,1001.47
2016-05-23T00:04:35.898Z,1001.45
2016-05-23T00:05:35.886Z,1001.47
2016-05-23T00:06:35.872Z,1001.42
2016-05-23T00:07:35.859Z,1001.48
2016-05-23T00:08:35.847Z,1001.44
2016-05-23T00:09:35.834Z,1001.42
2016-05-23T00:10:35.821Z,1001.38
2016-05-23T00:11:35.839Z,1001.35
2016-05-23T00:12:35.795Z,1001.33
2016-05-23T00:13:35.782Z,1001.37
2016-05-23T00:14:35.768Z,1001.37
2016-05-23T00:15:35.755Z,1001.3
2016-05-23T00:16:35.775Z,1001.31
2016-05-23T00:17:35.730Z,1001.3
2016-05-23T00:18:35.732Z,1001.3
2016-05-23T00:19:35.721Z,1001.33
2016-05-23T00:20:35.691Z,1001.3
2016-05-23T00:21:35.694Z,1001.28
2016-05-23T00:22:35.665Z,1001.24
2016-05-23T00:23:35.653Z,1001.26
2016-05-23T00:24:35.640Z,1001.26
2016-05-23T00:25:35.642Z,1001.23
2016-05-23T00:26:35.630Z,1001.21
2016-05-23T00:27:35.616Z,1001.18
2016-05-23T00:28:35.604Z,1001.23
2016-05-23T00:29:35.590Z,1001.17
2016-05-23T00:30:35.578Z,1001.19
2016-05-23T00:31:35.565Z,1001.17
2016-05-23T00:32:35.551Z,1001.21
2016-05-23T00:33:35.539Z,1001.24
2016-05-23T00:34:35.526Z,1001.22
2016-05-23T00:35:35.513Z,1001.22
2016-05-23T00:36:35.500Z,1001.22
2016-05-23T00:37:35.487Z,1001.26
2016-05-23T00:38:35.475Z,1001.31
2016-05-23T00:39:35.461Z,1001.28
2016-05-23T00:40:35.448Z,1001.24
2016-05-23T00:41:35.435Z,1001.27
2016-05-23T00:42:35.422Z,1001.24
2016-05-23T00:43:35.410Z,1001.28
2016-05-23T00:44:35.397Z,1001.26
2016-05-23T00:45:35.383Z,1001.27
2016-05-23T00:46:35.371Z,1001.32
2016-05-23T00:47:35.358Z,1001.29
2016-05-23T00:48:35.344Z,1001.3
2016-05-23T00:49:35.332Z,1001.33
2016-05-23T00:50:35.319Z,1001.4
2016-05-23T00:51:35.322Z,1001.38
2016-05-23T00:52:35.309Z,1001.41
2016-05-23T00:53:35.279Z,1001.4
2016-05-23T00:54:35.268Z,1001.39
2016-05-23T00:55:35.270Z,1001.4
2016-05-23T00:56:35.256Z,1001.39
2016-05-23T00:57:35.229Z,1001.36
2016-05-23T00:58:35.231Z,1001.37
2016-05-23T00:59:35.296Z,1001.35
2016-05-23T01:00:35.205Z,1001.36
2016-05-23T01:01:35.193Z,1001.33
2016-05-23T01:02:35.179Z,1001.3
2016-05-23T01:03:35.166Z,1001.28
2016-05-23T01:04:35.154Z,1001.3
2016-05-23T01:05:35.140Z,1001.28
2016-05-23T01:06:35.128Z,1001.28
2016-05-23T01:07:35.114Z,1001.26
2016-05-23T01:08:35.102Z,1001.26
2016-05-23T01:09:35.089Z,1001.26
2016-05-23T01:10:35.232Z,1001.29
2016-05-23T01:11:35.063Z,1001.26
2016-05-23T01:12:35.050Z,1001.24
2016-05-23T01:13:35.053Z,1001.19
2016-05-23T01:14:35.024Z,1001.18
2016-05-23T01:15:35.011Z,1001.17
2016-05-23T01:16:34.999Z,1001.17
2016-05-23T01:17:34.985Z,1001.12
2016-05-23T01:18:35.175Z,1001.1
2016-05-23T01:19:34.960Z,1001.07
2016-05-23T01:20:34.947Z,1001.13
2016-05-23T01:21:34.933Z,1001.07
2016-05-23T01:22:34.936Z,1001.11
2016-05-23T01:23:34.923Z,1001.09
2016-05-23T01:24:34.895Z,1001.08
2016-05-23T01:25:34.882Z,1001.08
2016-05-23T01:26:35.228Z,1001.09
2016-05-23T01:27:34.872Z,1001.08
2016-05-23T01:28:34.843Z,1001.06
2016-05-23T01:29:34.845Z,1001.09
2016-05-23T01:30:34.832Z,1001.13
2016-05-23T01:31:34.820Z,1001.06
2016-05-23T01:32:34.807Z,1001.07
2016-05-23T01:33:34.778Z,1001.11
2016-05-23T01:34:35.328Z,1001.1
2016-05-23T01:35:34.768Z,1001.06
2016-05-23T01:36:34.755Z,1001
2016-05-23T01:37:34.742Z,1000.99
2016-05-23T01:38:34.728Z,1000.96
2016-05-23T01:39:34.717Z,1000.96
2016-05-23T01:40:34.703Z,1000.98
2016-05-23T01:41:34.691Z,1001.02
2016-05-23T01:42:35.225Z,1000.98
2016-05-23T01:43:34.664Z,1001
2016-05-23T01:44:34.652Z,1000.97
2016-05-23T01:45:34.639Z,1001
2016-05-23T01:46:34.625Z,1001
2016-05-23T01:47:34.613Z,1001.02
2016-05-23T01:48:34.600Z,1001
2016-05-23T01:49:34.602Z,1001
2016-05-23T01:50:35.230Z,1000.98
2016-05-23T01:51:34.561Z,1001.02
2016-05-23T01:52:34.548Z,1001.01
2016-05-23T01:53:34.535Z,1001.05
2016-05-23T01:54:34.522Z,1001.01
2016-05-23T01:55:34.510Z,1000.99
2016-05-23T01:56:34.496Z,1001
2016-05-23T01:57:34.484Z,1001
2016-05-23T01:58:34.533Z,1000.98
2016-05-23T01:59:34.473Z,1000.98
2016-05-23T02:00:34.460Z,1000.94
2016-05-23T02:01:34.431Z,1000.91
2016-05-23T02:02:34.435Z,1000.98
2016-05-23T02:03:34.421Z,1000.95
2016-05-23T02:04:34.392Z,1000.93
2016-05-23T02:05:34.396Z,1000.91
2016-05-23T02:06:34.539Z,1000.91
2016-05-23T02:07:34.369Z,1000.92
2016-05-23T02:08:34.357Z,1000.91
2016-05-23T02:09:34.345Z,1000.91
2016-05-23T02:10:34.331Z,1000.91
2016-05-23T02:11:34.318Z,1000.91
2016-05-23T02:12:34.305Z,1000.9
2016-05-23T02:13:34.291Z,1000.91
2016-05-23T02:14:35.280Z,1000.92
2016-05-23T02:15:34.266Z,1000.89
2016-05-23T02:16:34.253Z,1000.93
2016-05-23T02:17:34.240Z,1000.92
2016-05-23T02:18:34.227Z,1000.84
2016-05-23T02:19:34.214Z,1000.89
2016-05-23T02:20:34.202Z,1000.84
2016-05-23T02:21:34.189Z,1000.86
2016-05-23T02:22:34.582Z,1000.88
2016-05-23T02:23:34.179Z,1000.86
2016-05-23T02:24:34.150Z,1000.89
2016-05-23T02:25:34.137Z,1000.94
2016-05-23T02:26:34.140Z,1000.87
2016-05-23T02:27:34.111Z,1000.87
2016-05-23T02:28:34.098Z,1000.93
2016-05-23T02:29:34.304Z,1000.89
2016-05-23T02:30:34.526Z,1000.9
2016-05-23T02:31:34.059Z,1000.89
2016-05-23T02:32:34.063Z,1000.92
2016-05-23T02:33:34.065Z,1000.88
2016-05-23T02:34:34.037Z,1000.89
2016-05-23T02:35:34.023Z,1000.89
2016-05-23T02:36:34.009Z,1000.93
2016-05-23T02:37:33.998Z,1000.91
2016-05-23T02:38:33.984Z,1000.96
2016-05-23T02:39:33.972Z,1001.02
2016-05-23T02:40:33.958Z,1000.97
2016-05-23T02:41:33.946Z,1000.95
2016-05-23T02:42:33.933Z,1000.91
2016-05-23T02:43:33.920Z,1000.96
2016-05-23T02:44:33.906Z,1000.96
2016-05-23T02:45:33.894Z,1000.96
2016-05-23T02:46:33.881Z,1000.98
2016-05-23T02:47:33.868Z,1000.99
2016-05-23T02:48:33.855Z,1000.98
2016-05-23T02:49:33.842Z,1001
2016-05-23T02:50:33.830Z,1000.98
2016-05-23T02:51:33.816Z,1000.98
2016-05-23T02:52:33.803Z,1000.99
2016-05-23T02:53:33.790Z,1000.99
2016-05-23T02:54:33.777Z,1001.02
2016-05-23T02:55:33.765Z,1000.98
2016-05-23T02:56:33.752Z,1001.02
2016-05-23T02:57:33.755Z,1001.04
2016-05-23T02:58:33.726Z,1000.97
2016-05-23T02:59:33.712Z,1001.01
2016-05-23T03:00:33.715Z,1001.02
2016-05-23T03:01:33.702Z,1001.01
2016-05-23T03:02:33.674Z,1001.04
2016-05-23T03:03:33.661Z,1001.03
2016-05-23T03:04:33.648Z,1001.05
2016-05-23T03:05:33.666Z,1001.05
2016-05-23T03:06:33.637Z,1001.09
2016-05-23T03:07:33.625Z,1001.1
2016-05-23T03:08:33.612Z,1001.1
2016-05-23T03:09:33.598Z,1001.1
2016-05-23T03:10:33.586Z,1001.13
2016-05-23T03:11:33.573Z,1001.1
2016-05-23T03:12:33.561Z,1001.14
2016-05-23T03:13:33.547Z,1001.1
2016-05-23T03:14:33.534Z,1001.08
2016-05-23T03:15:33.522Z,1001.12
2016-05-23T03:16:33.509Z,1001.07
2016-05-23T03:17:33.495Z,1001.12
2016-05-23T03:18:33.482Z,1001.14
2016-05-23T03:19:33.470Z,1001.14
2016-05-23T03:20:33.457Z,1001.14
2016-05-23T03:21:33.460Z,1001.16
2016-05-23T03:22:33.431Z,1001.19
2016-05-23T03:23:33.433Z,1001.14
2016-05-23T03:24:33.405Z,1001.16
2016-05-23T03:25:33.408Z,1001.16
2016-05-23T03:26:33.380Z,1001.17
2016-05-23T03:27:33.366Z,1001.17
2016-05-23T03:28:33.368Z,1001.17
2016-05-23T03:29:33.340Z,1001.18
2016-05-23T03:30:33.343Z,1001.18
2016-05-23T03:31:33.330Z,1001.19
2016-05-23T03:32:33.317Z,1001.17
2016-05-23T03:33:33.304Z,1001.18
2016-05-23T03:34:33.290Z,1001.24
2016-05-23T03:35:33.279Z,1001.18
2016-05-23T03:36:33.265Z,1001.2
2016-05-23T03:37:33.253Z,1001.23
2016-05-23T03:38:33.239Z,1001.17
2016-05-23T03:39:33.226Z,1001.16
2016-05-23T03:40:33.214Z,1001.18
2016-05-23T03:41:33.201Z,1001.19
2016-05-23T03:42:33.187Z,1001.18
2016-05-23T03:43:33.175Z,1001.15
2016-05-23T03:44:33.162Z,1001.18
2016-05-23T03:45:33.149Z,1001.15
2016-05-23T03:46:33.136Z,1001.2
2016-05-23T03:47:33.122Z,1001.2
2016-05-23T03:48:33.111Z,1001.16
2016-05-23T03:49:33.097Z,1001.12
2016-05-23T03:50:33.084Z,1001.13
2016-05-23T03:51:33.072Z,1001.14
2016-05-23T03:52:33.058Z,1001.12
2016-05-23T03:53:33.046Z,1001.08
2016-05-23T03:54:33.033Z,1001.11
2016-05-23T03:55:33.020Z,1001.09
2016-05-23T03:56:33.007Z,1001.08
2016-05-23T03:57:32.994Z,1001.09
2016-05-23T03:58:32.980Z,1001.09
2016-05-23T03:59:33.202Z,1001.12
2016-05-23T04:00:32.955Z,1001.1
2016-05-23T04:01:32.942Z,1001.12
2016-05-23T04:02:32.929Z,1001.07
2016-05-23T04:03:32.916Z,1001.05
2016-05-23T04:04:32.919Z,1001.05
2016-05-23T04:05:32.906Z,1001.04
2016-05-23T04:06:32.893Z,1001.05
2016-05-23T04:07:32.880Z,1001.04
2016-05-23T04:08:32.868Z,1001.02
2016-05-23T04:09:32.854Z,1001.03
2016-05-23T04:10:32.842Z,1000.98
2016-05-23T04:11:32.828Z,1001.01
2016-05-23T04:12:32.815Z,1001.03
2016-05-23T04:13:32.803Z,1001.02
2016-05-23T04:14:32.790Z,1001.06
2016-05-23T04:15:32.776Z,1001.02
2016-05-23T04:16:32.764Z,1001.05
2016-05-23T04:17:32.751Z,1001.09
2016-05-23T04:18:32.738Z,1001.08
2016-05-23T04:19:32.725Z,1001.06
2016-05-23T04:20:32.712Z,1001.05
2016-05-23T04:21:32.699Z,1001.01
2016-05-23T04:22:32.686Z,1001.04
2016-05-23T04:23:32.673Z,1001.01
2016-05-23T04:24:32.660Z,1001.02
2016-05-23T04:25:32.647Z,1001.02
2016-05-23T04:26:32.635Z,1000.99
2016-05-23T04:27:32.622Z,1001.04
2016-05-23T04:28:32.608Z,1001
2016-05-23T04:29:32.596Z,1001.01
2016-05-23T04:30:32.582Z,1001.01
2016-05-23T04:31:32.569Z,1001.01
2016-05-23T04:32:32.571Z,1001.01
2016-05-23T04:33:32.559Z,1001.04
2016-05-23T04:34:32.531Z,1001.05
2016-05-23T04:35:32.518Z,1001.08
2016-05-23T04:36:32.521Z,1001.05
2016-05-23T04:37:32.492Z,1001.09
2016-05-23T04:38:32.495Z,1001.08
2016-05-23T04:39:32.482Z,1001.07
2016-05-23T04:40:32.468Z,1001.08
2016-05-23T04:41:32.456Z,1001.01
2016-05-23T04:42:32.443Z,1001.03
2016-05-23T04:43:32.431Z,1001.01
2016-05-23T04:44:32.417Z,1000.98
2016-05-23T04:45:32.404Z,1000.99
2016-05-23T04:46:32.392Z,1000.97
2016-05-23T04:47:32.378Z,1000.97
2016-05-23T04:48:32.365Z,1000.99
2016-05-23T04:49:32.353Z,1000.97
2016-05-23T04:50:32.340Z,1000.99
2016-05-23T04:51:32.328Z,1000.99
2016-05-23T04:52:32.313Z,1000.95
2016-05-23T04:53:32.317Z,1000.98
2016-05-23T04:54:32.288Z,1000.99
2016-05-23T04:55:32.275Z,1000.99
2016-05-23T04:56:32.262Z,1001.01
2016-05-23T04:57:32.250Z,1000.99
2016-05-23T04:58:32.236Z,1001.02
2016-05-23T04:59:32.238Z,1001.02
2016-05-23T05:00:32.211Z,1001.02
2016-05-23T05:01:32.197Z,1001.04
2016-05-23T05:02:32.185Z,1001.1
2016-05-23T05:03:32.171Z,1001.08
2016-05-23T05:04:32.158Z,1001.16
2016-05-23T05:05:32.161Z,1001.17
2016-05-23T05:06:32.133Z,1001.15
2016-05-23T05:07:32.135Z,1001.18
2016-05-23T05:08:32.107Z,1001.18
2016-05-23T05:09:32.094Z,1001.19
2016-05-23T05:10:32.081Z,1001.25
2016-05-23T05:11:32.068Z,1001.29
2016-05-23T05:12:32.071Z,1001.25
2016-05-23T05:13:32.042Z,1001.25
2016-05-23T05:14:32.045Z,1001.31
2016-05-23T05:15:32.031Z,1001.3
2016-05-23T05:16:32.004Z,1001.28
2016-05-23T05:17:32.006Z,1001.35
2016-05-23T05:18:31.978Z,1001.33
2016-05-23T05:19:31.964Z,1001.36
2016-05-23T05:20:31.968Z,1001.37
2016-05-23T05:21:31.954Z,1001.39
2016-05-23T05:22:31.941Z,1001.42
2016-05-23T05:23:31.914Z,1001.43
2016-05-23T05:24:31.916Z,1001.41
2016-05-23T05:25:31.902Z,1001.45
2016-05-23T05:26:31.890Z,1001.42
2016-05-23T05:27:31.877Z,1001.43
2016-05-23T05:28:31.864Z,1001.42
2016-05-23T05:29:31.851Z,1001.42
2016-05-23T05:30:31.838Z,1001.43
2016-05-23T05:31:31.825Z,1001.47
2016-05-23T05:32:31.812Z,1001.45
2016-05-23T05:33:31.799Z,1001.43
2016-05-23T05:34:31.786Z,1001.51
2016-05-23T05:35:31.774Z,1001.49
2016-05-23T05:36:31.760Z,1001.47
2016-05-23T05:37:31.747Z,1001.51
2016-05-23T05:38:31.735Z,1001.53
2016-05-23T05:39:31.722Z,1001.53
2016-05-23T05:40:31.709Z,1001.51
2016-05-23T05:41:31.696Z,1001.5
2016-05-23T05:42:31.683Z,1001.52
2016-05-23T05:43:31.670Z,1001.56
2016-05-23T05:44:31.657Z,1001.56
2016-05-23T05:45:31.659Z,1001.59
2016-05-23T05:46:31.631Z,1001.56
2016-05-23T05:47:31.618Z,1001.59
2016-05-23T05:48:31.605Z,1001.59
2016-05-23T05:49:31.592Z,1001.59
2016-05-23T05:50:31.579Z,1001.6
2016-05-23T05:51:31.567Z,1001.57
2016-05-23T05:52:31.553Z,1001.59
2016-05-23T05:53:31.540Z,1001.59
2016-05-23T05:54:31.528Z,1001.63
2016-05-23T05:55:31.530Z,1001.58
2016-05-23T05:56:31.502Z,1001.62
2016-05-23T05:57:31.536Z,1001.63
2016-05-23T05:58:31.492Z,1001.62
2016-05-23T05:59:31.463Z,1001.64
2016-05-23T06:00:31.450Z,1001.65
2016-05-23T06:01:31.437Z,1001.66
2016-05-23T06:02:31.425Z,1001.69
2016-05-23T06:03:31.411Z,1001.68
2016-05-23T06:04:31.399Z,1001.71
2016-05-23T06:05:31.542Z,1001.7
2016-05-23T06:06:31.372Z,1001.71
2016-05-23T06:07:31.359Z,1001.69
2016-05-23T06:08:31.346Z,1001.73
2016-05-23T06:09:31.333Z,1001.71
2016-05-23T06:10:31.336Z,1001.72
2016-05-23T06:11:31.307Z,1001.72
2016-05-23T06:12:31.310Z,1001.72
2016-05-23T06:13:31.531Z,1001.7
2016-05-23T06:14:31.269Z,1001.74
2016-05-23T06:15:31.256Z,1001.74
2016-05-23T06:16:31.243Z,1001.76
2016-05-23T06:17:31.230Z,1001.75
2016-05-23T06:18:31.218Z,1001.78
2016-05-23T06:19:31.220Z,1001.81
2016-05-23T06:20:31.207Z,1001.76
2016-05-23T06:21:31.585Z,1001.82
2016-05-23T06:22:31.165Z,1001.8
2016-05-23T06:23:31.167Z,1001.82
2016-05-23T06:24:31.358Z,1001.85
2016-05-23T06:25:31.126Z,1001.82
2016-05-23T06:26:31.129Z,1001.81
2016-05-23T06:27:31.116Z,1001.81
2016-05-23T06:28:31.088Z,1001.83
2016-05-23T06:29:31.528Z,1001.88
2016-05-23T06:30:31.062Z,1001.87
2016-05-23T06:31:31.064Z,1001.91
2016-05-23T06:32:31.052Z,1001.89
2016-05-23T06:33:31.020Z,1001.94
2016-05-23T06:34:31.023Z,1001.94
2016-05-23T06:35:31.011Z,1001.91
2016-05-23T06:36:30.997Z,1001.92
2016-05-23T06:37:31.534Z,1001.93
2016-05-23T06:38:30.972Z,1001.92
2016-05-23T06:39:30.959Z,1001.93
2016-05-23T06:40:30.945Z,1001.98
2016-05-23T06:41:30.933Z,1001.99
2016-05-23T06:42:30.919Z,1002
2016-05-23T06:43:30.907Z,1001.98
2016-05-23T06:44:30.893Z,1002.03
2016-05-23T06:45:31.571Z,1002.03
2016-05-23T06:46:30.868Z,1002.06
2016-05-23T06:47:30.840Z,1002.05
2016-05-23T06:48:30.843Z,1002.07
2016-05-23T06:49:30.855Z,1002.07
2016-05-23T06:50:30.867Z,1002.07
2016-05-23T06:51:30.880Z,1002.05
2016-05-23T06:52:30.892Z,1002.08
2016-05-23T06:53:31.701Z,1002.11
2016-05-23T06:54:30.900Z,1002.09
2016-05-23T06:55:30.896Z,1002.14
2016-05-23T06:56:30.893Z,1002.16
2016-05-23T06:57:30.890Z,1002.1
2016-05-23T06:58:30.885Z,1002.12
2016-05-23T06:59:31.188Z,1002.13
2016-05-23T07:00:30.865Z,1002.16
2016-05-23T07:01:31.060Z,1002.17
2016-05-23T07:02:30.846Z,1002.15
2016-05-23T07:03:30.836Z,1002.16
2016-05-23T07:04:30.825Z,1002.15
2016-05-23T07:05:30.813Z,1002.11
2016-05-23T07:06:30.800Z,1002.15
2016-05-23T07:07:30.789Z,1002.1
2016-05-23T07:08:30.777Z,1002.14
2016-05-23T07:09:31.015Z,1002.17
2016-05-23T07:10:30.752Z,1002.18
2016-05-23T07:11:30.740Z,1002.15
2016-05-23T07:12:30.727Z,1002.18
2016-05-23T07:13:30.714Z,1002.19
2016-05-23T07:14:30.702Z,1002.18
2016-05-23T07:15:30.690Z,1002.17
2016-05-23T07:16:31.786Z,1002.17
2016-05-23T07:17:31.055Z,1002.21
2016-05-23T07:18:30.652Z,1002.18
2016-05-23T07:19:30.638Z,1002.22
2016-05-23T07:20:30.626Z,1002.19
2016-05-23T07:21:30.613Z,1002.21
2016-05-23T07:22:30.600Z,1002.21
2016-05-23T07:23:30.588Z,1002.25
2016-05-23T07:24:30.574Z,1002.23
2016-05-23T07:25:30.562Z,1002.26
2016-05-23T07:26:30.548Z,1002.19
2016-05-23T07:27:30.535Z,1002.22
2016-05-23T07:28:30.522Z,1002.22
2016-05-23T07:29:30.509Z,1002.18
2016-05-23T07:30:30.496Z,1002.22
2016-05-23T07:31:30.484Z,1002.21
2016-05-23T07:32:30.470Z,1002.21
2016-05-23T07:33:30.458Z,1002.21
2016-05-23T07:34:30.444Z,1002.21
2016-05-23T07:35:30.432Z,1002.17
2016-05-23T07:36:30.419Z,1002.21
2016-05-23T07:37:30.406Z,1002.19
2016-05-23T07:38:30.393Z,1002.19
2016-05-23T07:39:30.381Z,1002.18
2016-05-23T07:40:30.367Z,1002.2
2016-05-23T07:41:30.370Z,1002.23
2016-05-23T07:42:30.341Z,1002.22
2016-05-23T07:43:30.328Z,1002.22
2016-05-23T07:44:30.580Z,1002.22
2016-05-23T07:45:30.303Z,1002.23
2016-05-23T07:46:30.289Z,1002.19
2016-05-23T07:47:30.276Z,1002.24
2016-05-23T07:48:30.263Z,1002.24
2016-05-23T07:49:30.251Z,1002.19
2016-05-23T07:50:30.253Z,1002.25
2016-05-23T07:51:30.225Z,1002.28
2016-05-23T07:52:30.212Z,1002.28
2016-05-23T07:53:30.199Z,1002.28
2016-05-23T07:54:30.185Z,1002.26
2016-05-23T07:55:30.173Z,1002.22
2016-05-23T07:56:30.160Z,1002.22
2016-05-23T07:57:30.148Z,1002.27
2016-05-23T07:58:30.134Z,1002.31
2016-05-23T07:59:30.121Z,1002.26
2016-05-23T08:00:30.108Z,1002.26
2016-05-23T08:01:30.096Z,1002.25
2016-05-23T08:02:30.082Z,1002.28
2016-05-23T08:03:30.070Z,1002.22
2016-05-23T08:04:30.056Z,1002.27
2016-05-23T08:05:30.044Z,1002.29
2016-05-23T08:06:30.031Z,1002.25
2016-05-23T08:07:30.018Z,1002.26
2016-05-23T08:08:30.005Z,1002.27
2016-05-23T08:09:29.992Z,1002.23
2016-05-23T08:10:29.979Z,1002.26
2016-05-23T08:11:29.967Z,1002.26
2016-05-23T08:12:29.953Z,1002.28
2016-05-23T08:13:29.941Z,1002.26
2016-05-23T08:14:29.928Z,1002.28
2016-05-23T08:15:29.914Z,1002.29
2016-05-23T08:16:30.854Z,1002.34
2016-05-23T08:17:29.888Z,1002.29
2016-05-23T08:18:29.875Z,1002.32
2016-05-23T08:19:29.863Z,1002.36
2016-05-23T08:20:29.850Z,1002.33
2016-05-23T08:21:29.837Z,1002.36
2016-05-23T08:22:29.824Z,1002.33
2016-05-23T08:23:29.810Z,1002.36
2016-05-23T08:24:29.798Z,1002.42
2016-05-23T08:25:29.784Z,1002.44
2016-05-23T08:26:29.772Z,1002.39
2016-05-23T08:27:29.759Z,1002.37
2016-05-23T08:28:29.746Z,1002.36
2016-05-23T08:29:29.733Z,1002.32
2016-05-23T08:30:29.720Z,1002.33
2016-05-23T08:31:29.707Z,1002.34
2016-05-23T08:32:29.695Z,1002.28
2016-05-23T08:33:29.681Z,1002.37
2016-05-23T08:34:29.668Z,1002.37
2016-05-23T08:35:29.656Z,1002.36
2016-05-23T08:36:29.659Z,1002.41
2016-05-23T08:37:29.645Z,1002.42
2016-05-23T08:38:29.633Z,1002.43
2016-05-23T08:39:29.620Z,1002.45
2016-05-23T08:40:29.591Z,1002.45
2016-05-23T08:41:29.609Z,1002.37
2016-05-23T08:42:29.564Z,1002.41
2016-05-23T08:43:29.552Z,1002.39
2016-05-23T08:44:30.070Z,1002.36
2016-05-23T08:45:29.542Z,1002.35
2016-05-23T08:46:29.514Z,1002.37
2016-05-23T08:47:29.500Z,1002.37
2016-05-23T08:48:29.488Z,1002.36
2016-05-23T08:49:29.475Z,1002.4
2016-05-23T08:50:29.461Z,1002.41
2016-05-23T08:51:29.448Z,1002.4
2016-05-23T08:52:29.435Z,1002.43
2016-05-23T08:53:29.423Z,1002.44
2016-05-23T08:54:29.410Z,1002.39
2016-05-23T08:55:29.397Z,1002.39
2016-05-23T08:56:29.385Z,1002.41
2016-05-23T08:57:29.371Z,1002.42
2016-05-23T08:58:29.358Z,1002.42
2016-05-23T08:59:29.360Z,1002.42
2016-05-23T09:00:29.332Z,1002.4
2016-05-23T09:01:29.320Z,1002.43
2016-05-23T09:02:29.306Z,1002.47
2016-05-23T09:03:29.293Z,1002.52
2016-05-23T09:04:29.281Z,1002.54
2016-05-23T09:05:29.268Z,1002.56
2016-05-23T09:06:29.254Z,1002.58
2016-05-23T09:07:29.242Z,1002.58
2016-05-23T09:08:29.229Z,1002.57
2016-05-23T09:09:29.216Z,1002.65
2016-05-23T09:10:29.203Z,1002.66
2016-05-23T09:11:29.205Z,1002.61
2016-05-23T09:12:29.177Z,1002.68
2016-05-23T09:13:29.164Z,1002.63
2016-05-23T09:14:29.151Z,1002.68
2016-05-23T09:15:29.139Z,1002.67
2016-05-23T09:16:29.141Z,1002.71
2016-05-23T09:17:29.128Z,1002.75
2016-05-23T09:18:29.116Z,1002.71
2016-05-23T09:19:29.087Z,1002.75
2016-05-23T09:20:29.089Z,1002.77
2016-05-23T09:21:29.077Z,1002.77
2016-05-23T09:22:29.063Z,1002.77
2016-05-23T09:23:29.050Z,1002.78
2016-05-23T09:24:29.037Z,1002.85
2016-05-23T09:25:29.024Z,1002.8
2016-05-23T09:26:29.012Z,1002.82
2016-05-23T09:27:28.999Z,1002.82
2016-05-23T09:28:28.985Z,1002.82
2016-05-23T09:29:28.973Z,1002.84
2016-05-23T09:30:28.960Z,1002.89
2016-05-23T09:31:28.946Z,1002.92
2016-05-23T09:32:28.934Z,1002.93
2016-05-23T09:33:28.921Z,1002.9
2016-05-23T09:34:28.908Z,1002.92
2016-05-23T09:35:28.895Z,1002.93
2016-05-23T09:36:28.882Z,1002.99
2016-05-23T09:37:28.869Z,1002.99
2016-05-23T09:38:28.856Z,1002.92
2016-05-23T09:39:28.843Z,1002.97
2016-05-23T09:40:28.830Z,1002.96
2016-05-23T09:41:28.817Z,1003
2016-05-23T09:42:28.805Z,1003
2016-05-23T09:43:28.792Z,1002.99
2016-05-23T09:44:28.779Z,1002.99
2016-05-23T09:45:28.766Z,1002.96
2016-05-23T09:46:28.769Z,1003
2016-05-23T09:47:29.568Z,1003.05
2016-05-23T09:48:28.728Z,1003.05
2016-05-23T09:49:28.714Z,1003.03
2016-05-23T09:50:28.701Z,1003.05
2016-05-23T09:51:28.688Z,1003.02
2016-05-23T09:52:28.675Z,1003.02
2016-05-23T09:53:28.678Z,1003.03
2016-05-23T09:54:28.649Z,1003.01
2016-05-23T09:55:28.652Z,1003.02
2016-05-23T09:56:28.624Z,1003.05
2016-05-23T09:57:29.063Z,1003.05
2016-05-23T09:58:28.598Z,1003.05
2016-05-23T09:59:28.601Z,1003.05
2016-05-23T10:00:28.588Z,1003.06
2016-05-23T10:01:28.574Z,1003.07
2016-05-23T10:02:29.249Z,1003.06
2016-05-23T10:03:28.533Z,1003.11
2016-05-23T10:04:28.536Z,1003.07
2016-05-23T10:05:28.523Z,1003.08
2016-05-23T10:06:28.510Z,1003.07
2016-05-23T10:07:28.497Z,1003.08
2016-05-23T10:08:28.484Z,1003.07
2016-05-23T10:09:28.470Z,1003.05
2016-05-23T10:10:28.458Z,1003.07
2016-05-23T10:11:28.445Z,1003.08
2016-05-23T10:12:28.432Z,1003.11
2016-05-23T10:13:28.419Z,1003.14
2016-05-23T10:14:28.406Z,1003.08
2016-05-23T10:15:28.394Z,1003.12
2016-05-23T10:16:28.381Z,1003.12
2016-05-23T10:17:28.367Z,1003.12
2016-05-23T10:18:28.354Z,1003.13
2016-05-23T10:19:28.342Z,1003.14
2016-05-23T10:20:28.328Z,1003.18
2016-05-23T10:21:28.316Z,1003.17
2016-05-23T10:22:28.302Z,1003.22
2016-05-23T10:23:28.290Z,1003.22
2016-05-23T10:24:28.277Z,1003.2
2016-05-23T10:25:28.264Z,1003.23
2016-05-23T10:26:28.251Z,1003.21
2016-05-23T10:27:28.238Z,1003.22
2016-05-23T10:28:28.225Z,1003.21
2016-05-23T10:29:28.213Z,1003.25
2016-05-23T10:30:28.199Z,1003.25
2016-05-23T10:31:28.187Z,1003.2
2016-05-23T10:32:28.174Z,1003.2
2016-05-23T10:33:28.161Z,1003.21
2016-05-23T10:34:28.147Z,1003.26
2016-05-23T10:35:28.134Z,1003.27
2016-05-23T10:36:28.121Z,1003.24
2016-05-23T10:37:28.109Z,1003.25
2016-05-23T10:38:28.111Z,1003.28
2016-05-23T10:39:28.083Z,1003.26
2016-05-23T10:40:28.086Z,1003.26
2016-05-23T10:41:28.073Z,1003.28
2016-05-23T10:42:28.059Z,1003.3
2016-05-23T10:43:28.047Z,1003.26
2016-05-23T10:44:28.033Z,1003.29
2016-05-23T10:45:28.020Z,1003.34
2016-05-23T10:46:28.008Z,1003.28
2016-05-23T10:47:27.995Z,1003.31
2016-05-23T10:48:27.982Z,1003.33
2016-05-23T10:49:27.953Z,1003.28
2016-05-23T10:50:27.956Z,1003.3
2016-05-23T10:51:27.944Z,1003.4
2016-05-23T10:52:28.024Z,1003.35
2016-05-23T10:53:27.917Z,1003.38
2016-05-23T10:54:27.905Z,1003.37
2016-05-23T10:55:27.892Z,1003.37
2016-05-23T10:56:27.879Z,1003.41
2016-05-23T10:57:27.881Z,1003.41
2016-05-23T10:58:27.852Z,1003.39
2016-05-23T10:59:27.840Z,1003.43
2016-05-23T11:00:28.077Z,1003.4
2016-05-23T11:01:27.813Z,1003.38
2016-05-23T11:02:27.816Z,1003.4
2016-05-23T11:03:27.788Z,1003.41
2016-05-23T11:04:27.776Z,1003.45
2016-05-23T11:05:27.762Z,1003.46
2016-05-23T11:06:27.749Z,1003.45
2016-05-23T11:07:27.737Z,1003.45
2016-05-23T11:08:28.037Z,1003.48
2016-05-23T11:09:27.710Z,1003.46
2016-05-23T11:10:27.698Z,1003.46
2016-05-23T11:11:27.684Z,1003.43
2016-05-23T11:12:27.672Z,1003.51
2016-05-23T11:13:27.675Z,1003.43
2016-05-23T11:14:27.645Z,1003.44
2016-05-23T11:15:27.633Z,1003.43
2016-05-23T11:16:28.183Z,1003.45
2016-05-23T11:17:27.607Z,1003.45
2016-05-23T11:18:27.610Z,1003.47
2016-05-23T11:19:27.597Z,1003.49
2016-05-23T11:20:27.584Z,1003.53
2016-05-23T11:21:27.555Z,1003.53
2016-05-23T11:22:27.558Z,1003.56
2016-05-23T11:23:27.545Z,1003.46
2016-05-23T11:24:28.079Z,1003.55
2016-05-23T11:25:27.519Z,1003.5
2016-05-23T11:26:27.506Z,1003.52
2016-05-23T11:27:27.494Z,1003.52
2016-05-23T11:28:27.480Z,1003.54
2016-05-23T11:29:27.468Z,1003.56
2016-05-23T11:30:27.455Z,1003.57
2016-05-23T11:31:27.441Z,1003.53
2016-05-23T11:32:28.132Z,1003.56
2016-05-23T11:33:27.416Z,1003.63
2016-05-23T11:34:27.403Z,1003.62
2016-05-23T11:35:27.390Z,1003.65
2016-05-23T11:36:27.377Z,1003.63
2016-05-23T11:37:27.365Z,1003.66
2016-05-23T11:38:27.351Z,1003.66
2016-05-23T11:39:27.338Z,1003.64
2016-05-23T11:40:27.372Z,1003.63
2016-05-23T11:41:27.312Z,1003.66
2016-05-23T11:42:27.299Z,1003.67
2016-05-23T11:43:27.286Z,1003.63
2016-05-23T11:44:27.273Z,1003.66
2016-05-23T11:45:27.261Z,1003.62
2016-05-23T11:46:27.247Z,1003.63
2016-05-23T11:47:27.234Z,1003.66
2016-05-23T11:48:28.175Z,1003.64
2016-05-23T11:49:27.208Z,1003.68
2016-05-23T11:50:27.195Z,1003.7
2016-05-23T11:51:27.183Z,1003.72
2016-05-23T11:52:27.170Z,1003.68
2016-05-23T11:53:27.158Z,1003.67
2016-05-23T11:54:27.144Z,1003.7
2016-05-23T11:55:27.131Z,1003.68
2016-05-23T11:56:27.368Z,1003.67
2016-05-23T11:57:27.105Z,1003.71
2016-05-23T11:58:27.092Z,1003.66
2016-05-23T11:59:27.095Z,1003.67
2016-05-23T12:00:27.067Z,1003.69
2016-05-23T12:01:27.053Z,1003.69
2016-05-23T12:02:27.056Z,1003.66
2016-05-23T12:03:27.027Z,1003.63
2016-05-23T12:04:27.358Z,1003.65
2016-05-23T12:05:27.002Z,1003.7
2016-05-23T12:06:26.989Z,1003.77
2016-05-23T12:07:26.976Z,1003.75
2016-05-23T12:08:26.963Z,1003.76